createdAt,value
2019-03-13T00:02:40.461Z,2.20
2019-03-13T00:05:08.930Z,2.20
2019-03-13T00:07:36.343Z,2.10
2019-03-13T00:10:04.104Z,2.30
2019-03-13T00:12:31.405Z,2.30
2019-03-13T00:14:58.783Z,2.10
2019-03-13T00:17:26.192Z,2.20
2019-03-13T00:19:53.478Z,2.17
2019-03-13T00:22:20.820Z,2.30
2019-03-13T00:24:48.178Z,2.10
2019-03-13T00:27:15.544Z,2.30
2019-03-13T00:29:42.870Z,2.30
2019-03-13T00:32:12.710Z,2.10
2019-03-13T00:34:40.204Z,2.20
2019-03-13T00:37:07.518Z,1.93
2019-03-13T00:39:34.912Z,1.80
2019-03-13T00:42:02.411Z,2.03
2019-03-13T00:44:29.759Z,2.03
2019-03-13T00:46:57.114Z,2.17
2019-03-13T00:49:24.859Z,2.03
2019-03-13T00:51:52.303Z,2.10
2019-03-13T00:54:19.806Z,2.10
2019-03-13T00:56:47.245Z,1.97
2019-03-13T00:59:14.683Z,2.20
2019-03-13T01:01:55.822Z,2.17
2019-03-13T01:04:33.126Z,2.10
2019-03-13T01:07:05.703Z,2.00
2019-03-13T01:09:32.999Z,2.30
2019-03-13T01:12:00.397Z,2.00
2019-03-13T01:14:27.861Z,1.90
2019-03-13T01:16:55.535Z,2.10
2019-03-13T01:19:23.107Z,2.10
2019-03-13T01:21:50.583Z,1.90
2019-03-13T01:24:18.026Z,2.10
2019-03-13T01:26:45.441Z,1.90
2019-03-13T01:29:12.815Z,2.13
2019-03-13T01:32:05.754Z,1.97
2019-03-13T01:34:45.517Z,2.10
2019-03-13T01:37:12.869Z,2.00
2019-03-13T01:39:40.591Z,2.30
2019-03-13T01:42:08.198Z,2.13
2019-03-13T01:44:35.619Z,1.93
2019-03-13T01:47:03.045Z,2.20
2019-03-13T01:49:30.376Z,2.03
2019-03-13T01:51:58.058Z,2.10
2019-03-13T01:54:25.423Z,2.20
2019-03-13T01:56:52.832Z,2.10
2019-03-13T01:59:20.200Z,1.93
2019-03-13T02:01:47.602Z,2.13
2019-03-13T02:04:15.030Z,2.10
2019-03-13T02:06:42.469Z,1.97
2019-03-13T02:09:09.784Z,2.20
2019-03-13T02:11:37.107Z,2.30
2019-03-13T02:14:04.466Z,2.00
2019-03-13T02:16:31.981Z,2.00
2019-03-13T02:18:59.593Z,2.10
2019-03-13T02:21:27.002Z,2.30
2019-03-13T02:23:54.796Z,2.20
2019-03-13T02:26:22.189Z,2.10
2019-03-13T02:28:49.499Z,2.00
2019-03-13T02:31:17.001Z,2.10
2019-03-13T02:33:44.335Z,2.20
2019-03-13T02:36:11.704Z,2.20
2019-03-13T02:38:39.118Z,2.00
2019-03-13T02:41:06.444Z,2.20
2019-03-13T02:43:33.832Z,1.97
2019-03-13T02:46:01.566Z,2.10
2019-03-13T02:48:29.032Z,2.00
2019-03-13T02:50:56.476Z,2.00
2019-03-13T02:53:23.862Z,2.10
2019-03-13T02:55:51.112Z,2.20
2019-03-13T02:58:18.881Z,2.10
2019-03-13T03:01:01.607Z,2.10
2019-03-13T03:03:34.548Z,2.00
2019-03-13T03:06:01.906Z,2.00
2019-03-13T03:08:29.321Z,2.20
2019-03-13T03:10:56.744Z,2.30
2019-03-13T03:13:24.376Z,1.90
2019-03-13T03:15:51.755Z,2.23
2019-03-13T03:18:19.076Z,2.10
2019-03-13T03:20:46.462Z,2.10
2019-03-13T03:23:14.104Z,1.90
2019-03-13T03:25:41.516Z,2.30
2019-03-13T03:28:09.193Z,2.13
2019-03-13T03:30:36.596Z,1.90
2019-03-13T03:33:03.959Z,1.90
2019-03-13T03:35:31.358Z,1.80
2019-03-13T03:37:58.869Z,1.80
2019-03-13T03:40:26.206Z,1.60
2019-03-13T03:42:53.564Z,1.70
2019-03-13T03:45:21.021Z,1.70
2019-03-13T03:47:48.481Z,1.60
2019-03-13T03:50:15.879Z,1.50
2019-03-13T03:52:43.307Z,1.50
2019-03-13T03:55:10.855Z,1.60
2019-03-13T03:57:38.338Z,1.63
2019-03-13T04:00:06.236Z,1.60
2019-03-13T04:02:33.624Z,1.50
2019-03-13T04:05:01.366Z,1.60
2019-03-13T04:07:28.805Z,1.60
2019-03-13T04:09:56.293Z,1.53
2019-03-13T04:12:23.730Z,1.60
2019-03-13T04:14:51.228Z,1.60
2019-03-13T04:17:18.688Z,1.50
2019-03-13T04:19:46.035Z,1.60
2019-03-13T04:22:13.408Z,1.60
2019-03-13T04:24:40.817Z,1.50
2019-03-13T04:27:08.198Z,1.70
2019-03-13T04:29:35.515Z,1.50
2019-03-13T04:32:02.806Z,1.50
2019-03-13T04:34:30.243Z,1.40
2019-03-13T04:36:57.644Z,1.60
2019-03-13T04:39:25.029Z,1.50
2019-03-13T04:41:52.444Z,1.60
2019-03-13T04:44:19.851Z,1.47
2019-03-13T04:46:47.163Z,1.50
2019-03-13T04:49:14.593Z,1.60
2019-03-13T04:51:42.031Z,1.33
2019-03-13T04:54:09.412Z,1.60
2019-03-13T04:56:36.796Z,1.60
2019-03-13T04:59:04.239Z,1.60
2019-03-13T05:01:31.659Z,1.63
2019-03-13T05:03:59.068Z,1.60
2019-03-13T05:06:26.403Z,1.70
2019-03-13T05:09:07.939Z,1.50
2019-03-13T05:11:39.826Z,1.50
2019-03-13T05:14:07.292Z,1.60
2019-03-13T05:16:34.725Z,1.60
2019-03-13T05:19:02.063Z,1.60
2019-03-13T05:21:29.315Z,1.70
2019-03-13T05:23:56.661Z,2.00
2019-03-13T05:26:24.129Z,1.70
2019-03-13T05:28:51.483Z,1.70
2019-03-13T05:31:18.840Z,1.60
2019-03-13T05:33:46.259Z,1.60
2019-03-13T05:36:16.537Z,1.70
2019-03-13T05:38:43.135Z,1.77
2019-03-13T05:41:13.847Z,1.73
2019-03-13T05:43:41.308Z,1.80
2019-03-13T05:46:08.735Z,1.70
2019-03-13T05:48:36.153Z,1.60
2019-03-13T05:51:03.679Z,1.60
2019-03-13T05:53:31.105Z,1.70
2019-03-13T05:56:01.646Z,1.70
2019-03-13T05:58:29.085Z,1.80
2019-03-13T06:00:57.445Z,1.50
2019-03-13T06:03:24.839Z,1.70
2019-03-13T06:05:52.221Z,1.70
2019-03-13T06:08:19.718Z,1.80
2019-03-13T06:10:47.155Z,1.80
2019-03-13T06:13:14.587Z,1.70
2019-03-13T06:15:41.965Z,1.83
2019-03-13T06:18:10.039Z,1.73
2019-03-13T06:20:37.653Z,1.60
2019-03-13T06:23:08.247Z,1.60
2019-03-13T06:25:35.845Z,1.60
2019-03-13T06:28:03.372Z,2.00
2019-03-13T06:30:30.884Z,1.50
2019-03-13T06:32:58.470Z,1.80
2019-03-13T06:35:26.081Z,1.57
2019-03-13T06:37:53.534Z,1.70
2019-03-13T06:40:20.986Z,1.60
2019-03-13T06:42:48.435Z,1.80
2019-03-13T06:45:15.928Z,1.90
2019-03-13T06:47:43.345Z,1.97
2019-03-13T06:50:13.300Z,1.80
2019-03-13T06:52:40.722Z,2.17
2019-03-13T06:55:08.209Z,1.87
2019-03-13T06:57:35.567Z,1.80
2019-03-13T07:00:38.207Z,1.73
2019-03-13T07:03:25.203Z,1.70
2019-03-13T07:06:18.114Z,1.83
2019-03-13T07:09:10.980Z,1.97
2019-03-13T07:12:09.797Z,1.80
2019-03-13T07:14:56.667Z,1.80
2019-03-13T07:17:35.121Z,1.90
2019-03-13T07:20:11.215Z,1.90
2019-03-13T07:22:57.004Z,1.70
2019-03-13T07:25:46.815Z,1.70
2019-03-13T07:28:39.804Z,1.80
2019-03-13T07:31:39.058Z,1.60
2019-03-13T07:34:18.622Z,1.80
2019-03-13T07:37:02.109Z,1.80
2019-03-13T07:39:58.458Z,1.80
2019-03-13T07:42:48.434Z,1.70
2019-03-13T07:45:37.222Z,1.83
2019-03-13T07:48:22.998Z,1.80
2019-03-13T07:51:10.034Z,1.90
2019-03-13T07:54:00.158Z,1.70
2019-03-13T07:56:49.962Z,1.80
2019-03-13T07:59:33.314Z,1.63
2019-03-13T08:02:20.694Z,1.53
2019-03-13T08:05:06.062Z,1.73
2019-03-13T08:07:49.151Z,1.70
2019-03-13T08:10:31.032Z,1.60
2019-03-13T08:13:13.163Z,1.50
2019-03-13T08:16:02.024Z,1.60
2019-03-13T08:18:49.176Z,1.80
2019-03-13T08:21:31.371Z,1.80
2019-03-13T08:24:17.667Z,1.83
2019-03-13T08:27:16.765Z,1.70
2019-03-13T08:30:02.498Z,1.40
2019-03-13T08:33:03.038Z,1.60
2019-03-13T08:35:50.173Z,1.60
2019-03-13T08:38:35.727Z,1.70
2019-03-13T08:41:08.293Z,1.90
2019-03-13T08:43:47.153Z,1.80
2019-03-13T08:46:24.779Z,1.73
2019-03-13T08:49:06.034Z,1.50
2019-03-13T08:52:06.509Z,1.97
2019-03-13T08:55:11.630Z,1.70
2019-03-13T08:58:02.310Z,1.60
2019-03-13T09:00:55.767Z,1.70
2019-03-13T09:03:30.319Z,1.80
2019-03-13T09:06:26.480Z,2.00
2019-03-13T09:09:02.258Z,1.97
2019-03-13T09:11:40.108Z,1.60
2019-03-13T09:14:31.469Z,1.50
2019-03-13T09:17:30.381Z,1.73
2019-03-13T09:20:23.253Z,1.77
2019-03-13T09:23:13.010Z,1.80
2019-03-13T09:26:09.208Z,1.80
2019-03-13T09:28:55.199Z,1.90
2019-03-13T09:31:42.220Z,1.70
2019-03-13T09:34:18.652Z,1.80
2019-03-13T09:37:04.382Z,1.80
2019-03-13T09:39:40.645Z,1.90
2019-03-13T09:42:16.934Z,1.90
2019-03-13T09:45:03.861Z,1.80
2019-03-13T09:47:49.348Z,1.80
2019-03-13T09:50:39.496Z,1.80
2019-03-13T09:53:26.453Z,1.70
2019-03-13T09:56:22.610Z,1.70
2019-03-13T09:59:08.210Z,1.80
2019-03-13T10:01:57.668Z,1.60
2019-03-13T10:04:40.634Z,1.77
2019-03-13T10:07:30.544Z,1.90
2019-03-13T10:10:29.704Z,1.73
2019-03-13T10:13:25.446Z,1.80
2019-03-13T10:16:04.401Z,1.73
2019-03-13T10:18:51.438Z,1.90
2019-03-13T10:21:32.653Z,1.70
2019-03-13T10:24:18.448Z,1.80
2019-03-13T10:27:20.479Z,1.70
2019-03-13T10:29:54.396Z,2.10
2019-03-13T10:32:50.614Z,1.90
2019-03-13T10:35:36.102Z,2.00
2019-03-13T10:38:23.008Z,1.80
2019-03-13T10:41:19.548Z,2.00
2019-03-13T10:43:53.395Z,1.83
2019-03-13T10:46:40.257Z,2.10
2019-03-13T10:49:24.365Z,1.90
2019-03-13T10:52:05.016Z,2.20
2019-03-13T10:54:44.532Z,2.10
2019-03-13T10:57:35.770Z,2.00
2019-03-13T11:00:30.569Z,2.00
2019-03-13T11:03:28.310Z,2.00
2019-03-13T11:06:15.239Z,2.10
2019-03-13T11:08:59.525Z,2.10
2019-03-13T11:11:45.605Z,2.00
2019-03-13T11:14:32.628Z,2.00
2019-03-13T11:17:16.021Z,1.90
2019-03-13T11:19:54.322Z,2.00
2019-03-13T11:22:43.823Z,2.00
2019-03-13T11:25:33.699Z,1.90
2019-03-13T11:28:29.667Z,2.00
2019-03-13T11:31:31.575Z,2.00
2019-03-13T11:34:11.101Z,1.80
2019-03-13T11:37:07.072Z,2.13
2019-03-13T11:39:49.365Z,2.10
2019-03-13T11:42:45.353Z,2.20
2019-03-13T11:45:32.320Z,2.10
2019-03-13T11:48:18.546Z,2.27
2019-03-13T11:51:04.467Z,2.30
2019-03-13T11:53:54.136Z,2.43
2019-03-13T11:56:39.519Z,2.10
2019-03-13T11:59:26.575Z,2.67
2019-03-13T12:02:16.591Z,2.60
2019-03-13T12:05:12.456Z,2.20
2019-03-13T12:07:56.315Z,2.30
2019-03-13T12:10:43.059Z,2.10
2019-03-13T12:13:23.990Z,2.30
2019-03-13T12:16:01.706Z,2.20
2019-03-13T12:18:42.255Z,2.20
2019-03-13T12:21:29.352Z,2.10
2019-03-13T12:24:13.132Z,2.10
2019-03-13T12:27:00.024Z,2.20
2019-03-13T12:29:45.749Z,2.20
2019-03-13T12:32:26.898Z,2.27
2019-03-13T12:35:12.507Z,2.23
2019-03-13T12:38:04.512Z,2.27
2019-03-13T12:40:59.783Z,2.30
2019-03-13T12:43:55.775Z,2.27
2019-03-13T12:46:31.177Z,2.10
2019-03-13T12:49:15.474Z,2.20
2019-03-13T12:52:07.624Z,2.20
2019-03-13T12:55:04.390Z,2.03
2019-03-13T12:58:00.206Z,2.20
2019-03-13T13:00:59.467Z,2.13
2019-03-13T13:03:55.406Z,2.00
2019-03-13T13:06:40.952Z,2.00
2019-03-13T13:09:26.891Z,2.20
2019-03-13T13:12:14.062Z,2.20
2019-03-13T13:15:03.818Z,2.30
2019-03-13T13:17:51.161Z,2.10
2019-03-13T13:20:18.678Z,2.13
2019-03-13T13:22:52.164Z,2.00
2019-03-13T13:25:19.770Z,2.10
2019-03-13T13:27:47.228Z,2.30
2019-03-13T13:30:14.780Z,2.07
2019-03-13T13:32:42.227Z,2.43
2019-03-13T13:35:09.996Z,2.03
2019-03-13T13:37:37.449Z,2.13
2019-03-13T13:40:04.978Z,2.20
2019-03-13T13:42:32.749Z,2.10
2019-03-13T13:45:00.379Z,2.10
2019-03-13T13:47:27.831Z,2.30
2019-03-13T13:49:59.958Z,2.10
2019-03-13T13:52:24.541Z,2.20
2019-03-13T13:54:52.181Z,2.10
2019-03-13T13:57:19.589Z,2.20
2019-03-13T13:59:47.023Z,2.00
2019-03-13T14:02:14.474Z,2.00
2019-03-13T14:04:42.149Z,1.87
2019-03-13T14:07:09.706Z,2.00
2019-03-13T14:09:37.978Z,2.00
2019-03-13T14:12:05.436Z,2.10
2019-03-13T14:14:32.929Z,2.20
2019-03-13T14:17:00.273Z,2.13
2019-03-13T14:19:27.744Z,2.20
2019-03-13T14:22:05.936Z,2.30
2019-03-13T14:24:33.587Z,2.60
2019-03-13T14:27:13.562Z,2.50
2019-03-13T14:29:30.243Z,2.40
2019-03-13T14:31:57.780Z,2.50
2019-03-13T14:34:25.327Z,2.37
2019-03-13T14:36:52.832Z,2.30
2019-03-13T14:39:20.190Z,2.23
2019-03-13T14:41:48.110Z,2.30
2019-03-13T14:44:15.550Z,2.37
2019-03-13T14:46:42.962Z,2.30
2019-03-13T14:49:10.323Z,2.33
2019-03-13T14:51:37.750Z,2.20
2019-03-13T14:54:05.282Z,2.13
2019-03-13T14:56:33.107Z,2.30
2019-03-13T14:59:00.532Z,2.10
2019-03-13T15:01:28.123Z,2.10
2019-03-13T15:03:55.795Z,2.30
2019-03-13T15:06:23.282Z,2.20
2019-03-13T15:08:51.103Z,2.27
2019-03-13T15:11:18.529Z,2.00
2019-03-13T15:13:45.896Z,2.30
2019-03-13T15:16:14.371Z,1.93
2019-03-13T15:18:41.920Z,2.30
2019-03-13T15:21:09.493Z,2.20
2019-03-13T15:23:37.035Z,2.20
2019-03-13T15:26:04.485Z,2.00
2019-03-13T15:28:31.966Z,1.80
2019-03-13T15:30:59.406Z,2.10
2019-03-13T15:33:26.788Z,2.30
2019-03-13T15:35:54.134Z,2.40
2019-03-13T15:38:21.673Z,2.20
2019-03-13T15:40:49.174Z,1.90
2019-03-13T15:43:16.845Z,2.00
2019-03-13T15:45:44.263Z,2.00
2019-03-13T15:48:11.715Z,2.30
2019-03-13T15:50:39.174Z,2.30
2019-03-13T15:53:06.661Z,2.20
2019-03-13T15:55:34.318Z,2.13
2019-03-13T15:58:01.715Z,2.20
2019-03-13T16:00:29.240Z,2.30
2019-03-13T16:02:56.813Z,1.70
2019-03-13T16:05:24.136Z,1.97
2019-03-13T16:07:51.913Z,2.00
2019-03-13T16:10:19.514Z,2.00
2019-03-13T16:12:46.825Z,1.90
2019-03-13T16:15:16.327Z,2.03
2019-03-13T16:17:43.975Z,2.07
2019-03-13T16:20:12.262Z,1.90
2019-03-13T16:22:41.636Z,2.00
2019-03-13T16:25:09.414Z,2.10
2019-03-13T16:27:36.896Z,2.23
2019-03-13T16:30:06.734Z,2.00
2019-03-13T16:32:43.582Z,2.10
2019-03-13T16:35:04.022Z,2.10
2019-03-13T16:37:31.544Z,2.00
2019-03-13T16:39:58.909Z,2.30
2019-03-13T16:42:26.432Z,2.00
2019-03-13T16:44:53.877Z,2.20
2019-03-13T16:47:21.338Z,2.03
2019-03-13T16:49:48.713Z,1.90
2019-03-13T16:52:16.163Z,1.90
2019-03-13T16:54:43.518Z,1.80
2019-03-13T16:57:12.103Z,2.30
2019-03-13T16:59:39.626Z,1.90
2019-03-13T17:02:07.109Z,2.00
2019-03-13T17:04:34.582Z,1.90
2019-03-13T17:07:02.050Z,2.00
2019-03-13T17:09:29.624Z,2.10
2019-03-13T17:11:57.134Z,1.97
2019-03-13T17:14:24.624Z,1.77
2019-03-13T17:16:52.049Z,2.03
2019-03-13T17:19:19.571Z,1.87
2019-03-13T17:21:46.926Z,1.90
2019-03-13T17:24:14.313Z,2.17
2019-03-13T17:26:41.617Z,2.10
2019-03-13T17:29:08.931Z,1.90
2019-03-13T17:31:36.365Z,2.00
2019-03-13T17:34:03.741Z,1.90
2019-03-13T17:36:31.189Z,1.83
2019-03-13T17:38:58.678Z,1.80
2019-03-13T17:41:26.134Z,2.17
2019-03-13T17:43:53.651Z,2.00
2019-03-13T17:46:21.081Z,2.10
2019-03-13T17:48:48.424Z,2.00
2019-03-13T17:51:15.836Z,1.90
2019-03-13T17:53:43.180Z,2.00
2019-03-13T17:56:11.289Z,1.80
2019-03-13T17:58:39.038Z,1.90
2019-03-13T18:01:06.504Z,2.00
2019-03-13T18:03:33.848Z,1.90
2019-03-13T18:06:01.171Z,1.90
2019-03-13T18:08:28.525Z,1.90
2019-03-13T18:10:56.010Z,2.17
2019-03-13T18:13:23.505Z,2.60
2019-03-13T18:15:50.945Z,2.30
2019-03-13T18:18:18.410Z,2.30
2019-03-13T18:20:45.773Z,2.30
2019-03-13T18:23:13.330Z,2.00
2019-03-13T18:25:40.877Z,4.63
2019-03-13T18:28:08.568Z,2.40
2019-03-13T18:30:36.048Z,2.40
2019-03-13T18:33:04.273Z,2.67
2019-03-13T18:35:31.715Z,2.30
2019-03-13T18:37:59.063Z,2.00
2019-03-13T18:40:26.716Z,2.20
2019-03-13T18:42:54.250Z,1.97
2019-03-13T18:45:23.314Z,2.33
2019-03-13T18:47:51.069Z,2.30
2019-03-13T18:50:22.078Z,2.10
2019-03-13T18:52:50.080Z,2.47
2019-03-13T18:55:18.655Z,2.03
2019-03-13T18:57:46.117Z,1.93
2019-03-13T19:00:17.263Z,2.40
2019-03-13T19:02:44.748Z,2.20
2019-03-13T19:05:13.018Z,2.30
2019-03-13T19:07:40.444Z,2.20
2019-03-13T19:10:08.732Z,2.07
2019-03-13T19:12:36.218Z,2.40
2019-03-13T19:15:07.438Z,2.30
2019-03-13T19:17:34.942Z,2.30
2019-03-13T19:20:02.374Z,2.47
2019-03-13T19:22:29.891Z,2.20
2019-03-13T19:24:57.366Z,2.30
2019-03-13T19:27:25.895Z,3.00
2019-03-13T19:29:53.729Z,2.30
2019-03-13T19:32:22.532Z,2.30
2019-03-13T19:34:50.701Z,2.30
2019-03-13T19:37:18.479Z,2.10
2019-03-13T19:39:46.010Z,2.70
2019-03-13T19:42:13.764Z,2.50
2019-03-13T19:44:48.127Z,2.47
2019-03-13T19:47:17.111Z,2.57
2019-03-13T19:49:45.209Z,2.40
2019-03-13T19:52:12.852Z,2.30
2019-03-13T19:54:41.681Z,2.20
2019-03-13T19:57:11.272Z,2.37
2019-03-13T19:59:40.237Z,2.30
2019-03-13T20:04:56.712Z,2.07
2019-03-13T20:07:25.061Z,2.30
2019-03-13T20:09:55.179Z,2.37
2019-03-13T20:12:24.445Z,2.50
2019-03-13T20:14:57.237Z,2.33
2019-03-13T20:17:29.159Z,2.40
2019-03-13T20:19:56.983Z,2.20
2019-03-13T20:23:04.257Z,2.37
2019-03-13T20:25:32.108Z,2.30
2019-03-13T20:27:59.718Z,2.57
2019-03-13T20:30:51.289Z,2.53
2019-03-13T20:33:18.838Z,2.30
2019-03-13T20:35:47.697Z,2.40
2019-03-13T20:38:15.702Z,2.40
2019-03-13T20:40:43.242Z,2.23
2019-03-13T20:43:11.668Z,2.30
2019-03-13T20:45:39.565Z,2.30
2019-03-13T20:48:08.308Z,2.50
2019-03-13T20:50:37.992Z,2.20
2019-03-13T20:53:06.174Z,2.63
2019-03-13T20:55:34.204Z,2.40
2019-03-13T20:58:01.831Z,2.33
2019-03-13T21:00:29.780Z,2.33
2019-03-13T21:02:58.984Z,2.57
2019-03-13T21:05:28.043Z,2.30
2019-03-13T21:07:55.756Z,2.30
2019-03-13T21:10:26.467Z,2.47
2019-03-13T21:12:54.269Z,2.40
2019-03-13T21:15:24.440Z,2.53
2019-03-13T21:17:52.223Z,2.80
2019-03-13T21:20:21.589Z,2.40
2019-03-13T21:22:49.325Z,2.70
2019-03-13T21:25:16.907Z,2.50
2019-03-13T21:27:47.529Z,2.53
2019-03-13T21:30:18.712Z,2.40
2019-03-13T21:32:46.245Z,2.43
2019-03-13T21:35:14.044Z,2.50
2019-03-13T21:37:42.312Z,2.60
2019-03-13T21:40:20.293Z,2.50
2019-03-13T21:42:48.317Z,2.50
2019-03-13T21:45:22.951Z,2.57
2019-03-13T21:47:48.556Z,2.60
2019-03-13T21:50:16.803Z,2.50
2019-03-13T21:52:44.266Z,2.30
2019-03-13T21:55:12.710Z,2.40
2019-03-13T21:57:40.832Z,1.83
2019-03-13T22:00:12.441Z,2.20
2019-03-13T22:02:40.142Z,2.20
2019-03-13T22:05:07.678Z,1.80
2019-03-13T22:07:35.255Z,1.90
2019-03-13T22:10:03.036Z,2.10
2019-03-13T22:12:30.498Z,2.10
2019-03-13T22:14:57.854Z,1.93
2019-03-13T22:20:14.686Z,2.30
2019-03-13T22:22:42.345Z,1.93
2019-03-13T22:25:10.972Z,1.87
2019-03-13T22:27:38.486Z,2.20
2019-03-13T22:30:08.678Z,2.00
2019-03-13T22:32:36.147Z,2.10
2019-03-13T22:35:03.948Z,2.10
2019-03-13T22:37:31.353Z,1.90
2019-03-13T22:39:58.959Z,1.90
2019-03-13T22:42:26.860Z,1.90
2019-03-13T22:44:54.269Z,1.90
2019-03-13T22:47:21.887Z,1.80
2019-03-13T22:49:49.381Z,1.90
2019-03-13T22:52:16.697Z,2.00
2019-03-13T22:54:44.101Z,2.00
2019-03-13T22:57:11.682Z,1.80
2019-03-13T22:59:39.111Z,1.90
2019-03-13T23:02:08.215Z,1.97
2019-03-13T23:04:36.314Z,1.90
2019-03-13T23:07:04.047Z,1.87
2019-03-13T23:09:31.584Z,1.90
2019-03-13T23:11:58.982Z,2.10
2019-03-13T23:14:26.658Z,2.10
2019-03-13T23:16:54.171Z,1.93
2019-03-13T23:19:21.751Z,1.97
2019-03-13T23:21:49.161Z,2.00
2019-03-13T23:24:16.565Z,2.10
2019-03-13T23:26:44.021Z,2.00
2019-03-13T23:29:11.471Z,2.00
2019-03-13T23:31:39.351Z,1.90
2019-03-13T23:34:06.839Z,1.93
2019-03-13T23:36:34.318Z,1.80
2019-03-13T23:39:01.792Z,1.90
2019-03-13T23:41:29.272Z,2.00
2019-03-13T23:43:56.784Z,2.03
2019-03-13T23:46:24.217Z,2.10
2019-03-13T23:48:51.832Z,2.00
2019-03-13T23:51:19.304Z,1.80
2019-03-13T23:53:46.573Z,1.90
2019-03-13T23:56:14.054Z,1.93
2019-03-13T23:58:41.494Z,2.17
